< < Back
Terminal Aerodrome Forecast


Current Version              Previous Versions:   1  2  3  4  5  6  7  8  9  

Terminal Aerodrome Forecast

129
FTUS42 KILM 251120
TAFILM
TAF
KILM 251120Z 2512/2612 04007KT P6SM BKN012
     FM251400 08009KT P6SM VCSH SCT020 BKN050
     FM260100 06007KT P6SM BKN020=

Latest METAR

688
SAUS70 KWBC 260000 RRM
MTRILM
METAR KILM 252353Z 08008KT 10SM OVC028 24/18 A3011 RMK AO2 SLP195
T02390178 10278 20239 53013


USA.gov is the U.S. government's official web portal to all federal, state and local government web resources and services.